Time;durP1;ratioP1;P1;durP2;ratioP2;P2;SDS_P1;SDS_P2;PMS_P1;PMS_P2;Temp;Humidity;BMP_temperature;BMP_pressure;BME280_temperature;BME280_humidity;BME280_pressure;Samples;Min_cycle;Max_cycle;Signal;HPM_P1;HPM_P2
2022/01/25 00:15:07;;;;;;;15.45;8.73;;;;;;;20.61;36.71;103526.50;4977441;28;20076;-61
2022/01/25 00:26:39;;;;;;;15.70;9.35;;;;;;;20.53;36.76;103519.19;4975108;28;20104;-61
2022/01/25 00:29:12;;;;;;;16.90;9.52;;;;;;;20.48;36.81;103514.25;4974748;28;20047;-61
2022/01/25 00:31:39;;;;;;;15.52;9.27;;;;;;;20.47;36.80;103512.56;4973635;28;20054;-61
2022/01/25 00:34:06;;;;;;;15.30;9.25;;;;;;;20.44;36.80;103506.66;4973572;28;20117;-61
2022/01/25 00:36:32;;;;;;;15.65;9.75;;;;;;;20.39;37.03;103504.34;4971445;28;20404;-61
2022/01/25 00:38:58;;;;;;;15.23;8.68;;;;;;;20.41;36.82;103513.03;4976581;28;20581;-61
2022/01/25 00:41:25;;;;;;;16.58;9.40;;;;;;;20.38;36.79;103507.94;4976622;28;20039;-61
2022/01/25 00:43:52;;;;;;;14.90;8.93;;;;;;;20.16;36.81;103474.38;4976711;28;20057;-61
2022/01/25 00:46:20;;;;;;;15.35;9.60;;;;;;;20.36;36.84;103512.50;4973207;28;20046;-61
2022/01/25 00:48:49;;;;;;;15.02;9.35;;;;;;;20.37;36.85;103505.41;4975129;28;20054;-61
2022/01/25 00:54:27;;;;;;;14.93;9.23;;;;;;;20.32;36.90;103500.50;4976393;28;20133;-61
2022/01/25 00:56:54;;;;;;;16.60;9.18;;;;;;;20.31;36.86;103500.59;4971045;28;20038;-61
2022/01/25 00:59:23;;;;;;;15.30;9.88;;;;;;;20.29;36.92;103495.44;4972509;28;20117;-61
2022/01/25 01:01:51;;;;;;;14.85;9.07;;;;;;;20.19;36.88;103479.41;4976995;28;20043;-61
2022/01/25 01:04:18;;;;;;;16.55;9.43;;;;;;;20.27;36.90;103499.13;4974970;28;20488;-61
2022/01/25 01:06:46;;;;;;;15.68;9.57;;;;;;;20.25;36.88;103501.91;4974500;28;20027;-61
2022/01/25 01:09:12;;;;;;;17.27;8.95;;;;;;;20.20;37.02;103496.13;4974092;28;20054;-61
2022/01/25 01:11:47;;;;;;;14.70;9.20;;;;;;;20.23;36.94;103501.19;4973923;28;20622;-61
2022/01/25 01:17:12;;;;;;;12.85;8.68;;;;;;;20.21;36.90;103511.88;4973738;28;20038;-61
2022/01/25 01:39:19;;;;;;;14.55;9.38;;;;;;;20.00;37.14;103470.38;4970940;28;20495;-61
2022/01/25 01:43:40;;;;;;;14.98;9.10;;;;;;;20.04;37.04;103485.03;4975047;28;20388;-61
2022/01/25 01:48:56;;;;;;;14.02;8.80;;;;;;;20.03;37.11;103486.84;4974982;28;20041;-61
2022/01/25 01:51:30;;;;;;;16.05;9.60;;;;;;;20.03;37.02;103486.00;4971060;28;20479;-61
2022/01/25 01:53:58;;;;;;;14.63;9.15;;;;;;;20.00;37.13;103478.31;4975419;28;20492;-61
2022/01/25 01:56:25;;;;;;;15.95;9.57;;;;;;;20.00;37.12;103486.22;4973257;28;20120;-61
2022/01/25 01:58:54;;;;;;;14.55;9.07;;;;;;;19.97;37.15;103492.59;4974390;28;20053;-61
2022/01/25 02:01:24;;;;;;;16.73;9.75;;;;;;;19.98;37.14;103486.34;4971289;28;20034;-61
2022/01/25 02:03:51;;;;;;;16.58;9.82;;;;;;;19.99;37.12;103487.19;4970071;28;20121;-61
2022/01/25 02:06:17;;;;;;;16.08;9.25;;;;;;;19.97;36.98;103483.81;4975345;28;20049;-63
2022/01/25 02:08:42;;;;;;;17.38;9.70;;;;;;;19.96;36.99;103484.78;4971467;28;20050;-61
2022/01/25 02:11:09;;;;;;;15.75;10.13;;;;;;;19.94;37.02;103486.72;4976162;28;20141;-61
2022/01/25 02:13:37;;;;;;;16.98;9.82;;;;;;;19.94;37.08;103484.91;4974838;28;20081;-61
2022/01/25 02:16:08;;;;;;;13.43;8.30;;;;;;;19.87;37.20;103487.16;4971919;28;22031;-61
2022/01/25 02:24:03;;;;;;;15.13;8.88;;;;;;;19.86;37.18;103489.91;4976481;28;20050;-61
2022/01/25 02:26:28;;;;;;;15.35;9.70;;;;;;;19.85;37.12;103491.72;4969427;28;20040;-61
2022/01/25 02:28:54;;;;;;;16.05;9.23;;;;;;;19.78;37.19;103468.50;4956102;28;20035;-61
2022/01/25 02:31:19;;;;;;;16.55;9.80;;;;;;;19.84;37.23;103487.38;4975580;28;20034;-61
2022/01/25 02:33:45;;;;;;;17.10;9.43;;;;;;;19.82;37.18;103486.66;4974675;28;20957;-61
2022/01/25 02:36:15;;;;;;;15.93;9.50;;;;;;;19.83;37.17;103485.69;4963317;28;20117;-61
2022/01/25 02:38:41;;;;;;;15.70;9.98;;;;;;;19.82;37.15;103480.53;4973877;28;20137;-61
2022/01/25 02:41:07;;;;;;;14.65;9.52;;;;;;;19.77;37.16;103472.13;4975862;28;20054;-61
2022/01/25 02:43:34;;;;;;;15.88;9.65;;;;;;;19.82;37.08;103477.88;4974160;28;20034;-61
2022/01/25 02:48:55;;;;;;;15.60;9.38;;;;;;;19.81;37.17;103469.13;4971992;28;20046;-61
2022/01/25 02:51:27;;;;;;;16.88;9.75;;;;;;;19.76;37.17;103473.06;4969450;28;20042;-61
2022/01/25 02:53:54;;;;;;;17.25;10.00;;;;;;;19.77;37.34;103470.31;4970990;28;20483;-61
2022/01/25 02:56:20;;;;;;;16.33;10.02;;;;;;;19.75;37.24;103476.66;4975980;28;20030;-61
2022/01/25 02:58:46;;;;;;;15.73;9.98;;;;;;;19.75;37.43;103474.88;4972173;28;20504;-61
2022/01/25 03:01:13;;;;;;;15.75;9.85;;;;;;;19.74;37.24;103469.69;4974561;28;20038;-61
2022/01/25 03:03:38;;;;;;;13.88;9.35;;;;;;;19.76;37.28;103473.91;4973370;28;20045;-61
2022/01/25 03:06:05;;;;;;;16.80;9.50;;;;;;;19.70;37.24;103463.78;4973819;28;20443;-61
2022/01/25 03:08:31;;;;;;;16.23;9.57;;;;;;;19.47;37.56;103433.75;4970007;28;20049;-61
2022/01/25 03:10:57;;;;;;;14.02;9.60;;;;;;;19.71;37.26;103472.56;4970835;28;20050;-61
2022/01/25 03:13:28;;;;;;;15.45;10.23;;;;;;;19.75;37.25;103466.06;4975609;28;20336;-61
2022/01/25 03:15:59;;;;;;;15.23;9.60;;;;;;;19.72;37.31;103469.78;4972655;28;20069;-61
2022/01/25 03:21:02;;;;;;;15.50;9.48;;;;;;;19.66;37.34;103450.91;4971356;28;20041;-61
2022/01/25 03:23:29;;;;;;;15.45;9.77;;;;;;;19.71;37.22;103460.19;4971835;28;20086;-61
2022/01/25 03:25:55;;;;;;;15.00;9.85;;;;;;;19.68;37.22;103465.69;4970246;28;20500;-61
2022/01/25 03:28:20;;;;;;;14.65;9.25;;;;;;;19.68;37.29;103463.06;4971539;28;20050;-61
2022/01/25 03:30:47;;;;;;;14.60;9.43;;;;;;;19.68;37.28;103463.06;4972213;28;20085;-61
2022/01/25 03:33:14;;;;;;;16.48;9.90;;;;;;;19.68;37.35;103468.34;4973111;28;20035;-61
2022/01/25 03:35:40;;;;;;;17.05;9.80;;;;;;;19.59;37.58;103450.53;4955570;28;20038;-61
2022/01/25 03:38:06;;;;;;;14.95;9.60;;;;;;;19.67;37.37;103464.00;4972015;28;20165;-61
2022/01/25 03:40:33;;;;;;;14.82;9.20;;;;;;;19.65;37.22;103451.88;4973285;28;20052;-61
2022/01/25 03:42:59;;;;;;;14.32;9.32;;;;;;;19.64;37.35;103453.69;4978957;28;20041;-61
2022/01/25 03:45:31;;;;;;;18.05;9.45;;;;;;;19.63;37.36;103446.72;4974587;28;20990;-61
2022/01/25 03:49:47;;;;;;;16.00;9.80;;;;;;;19.66;37.37;103457.03;4977356;28;20084;-61
2022/01/25 03:50:44;;;;;;;14.95;9.50;;;;;;;19.65;37.40;103452.72;4976077;28;20173;-61
2022/01/25 03:53:13;;;;;;;17.42;9.88;;;;;;;19.62;37.40;103447.66;4976333;28;20053;-61
2022/01/25 03:55:39;;;;;;;16.40;10.48;;;;;;;19.63;37.43;103457.28;4973645;28;20031;-61
2022/01/25 03:58:06;;;;;;;15.13;9.50;;;;;;;19.62;37.36;103450.31;4957743;28;20034;-61
2022/01/25 04:00:32;;;;;;;15.27;9.63;;;;;;;19.59;37.30;103445.25;4977178;28;20399;-61
2022/01/25 04:03:10;;;;;;;17.35;10.77;;;;;;;19.56;37.31;103442.81;4977751;28;20403;-61
2022/01/25 04:05:47;;;;;;;14.05;9.05;;;;;;;19.47;37.22;103433.75;4974768;28;20053;-61
2022/01/25 04:08:13;;;;;;;15.98;9.57;;;;;;;19.62;37.49;103455.59;4974395;28;20507;-61
2022/01/25 04:10:39;;;;;;;15.77;9.77;;;;;;;19.60;37.44;103455.72;4977357;28;20046;-61
2022/01/25 04:13:05;;;;;;;15.05;9.45;;;;;;;19.58;37.33;103448.88;4977980;28;20042;-61
2022/01/25 04:15:31;;;;;;;16.92;10.02;;;;;;;19.55;37.40;103451.72;4972338;28;20035;-61
2022/01/25 04:18:23;;;;;;;15.63;9.98;;;;;;;19.58;37.59;103454.16;4961735;28;20057;-61
2022/01/25 04:21:02;;;;;;;16.05;10.00;;;;;;;19.54;37.51;103460.59;4954930;28;20050;-61
2022/01/25 04:26:11;;;;;;;17.95;10.35;;;;;;;19.50;37.45;103443.25;4972200;28;20053;-61
2022/01/25 04:28:37;;;;;;;14.45;9.32;;;;;;;19.53;37.44;103448.31;4974820;28;20038;-61
2022/01/25 04:31:02;;;;;;;17.10;9.90;;;;;;;19.54;37.53;103447.38;4957283;28;20046;-61
2022/01/25 04:33:39;;;;;;;16.02;10.27;;;;;;;19.53;37.49;103441.22;4973593;28;20042;-61
2022/01/25 04:36:27;;;;;;;16.05;10.45;;;;;;;19.55;37.47;103446.41;4976250;28;20559;-61
2022/01/25 04:49:53;;;;;;;17.25;10.32;;;;;;;19.47;37.60;103448.78;4976956;28;20031;-61
2022/01/25 04:52:22;;;;;;;15.50;9.65;;;;;;;19.49;37.54;103446.84;4978619;28;20044;-61
2022/01/25 05:02:28;;;;;;;15.93;10.38;;;;;;;19.40;37.61;103432.53;4973790;28;20050;-61
2022/01/25 05:05:00;;;;;;;16.88;9.73;;;;;;;19.45;37.52;103430.41;4973932;28;20077;-61
2022/01/25 05:07:37;;;;;;;16.50;10.38;;;;;;;19.32;37.42;103413.75;4971337;28;20064;-61
2022/01/25 05:10:04;;;;;;;16.63;10.02;;;;;;;19.43;37.58;103437.59;4970703;28;20125;-61
2022/01/25 05:12:42;;;;;;;15.82;9.82;;;;;;;19.42;37.43;103435.06;4971462;28;20053;-61
2022/01/25 05:17:45;;;;;;;18.50;10.73;;;;;;;19.46;37.38;103433.88;4973204;28;20072;-61
2022/01/25 05:22:55;;;;;;;17.08;10.07;;;;;;;19.25;37.45;103412.53;4969890;28;20062;-61
2022/01/25 05:25:20;;;;;;;14.90;10.32;;;;;;;19.44;37.45;103433.16;4968769;28;20042;-61
2022/01/25 05:27:46;;;;;;;16.88;10.25;;;;;;;19.26;37.46;103408.94;4968052;28;20038;-61
2022/01/25 05:30:11;;;;;;;14.73;9.80;;;;;;;19.44;37.38;103436.63;4951892;28;20046;-61
2022/01/25 05:32:37;;;;;;;14.73;9.60;;;;;;;19.41;37.64;103436.88;4970165;28;20136;-61
2022/01/25 05:35:04;;;;;;;16.65;10.02;;;;;;;19.40;37.45;103437.81;4971422;28;20653;-61
2022/01/25 05:37:32;;;;;;;17.05;9.82;;;;;;;19.39;37.56;103441.44;4947492;28;20500;-61
2022/01/25 05:40:00;;;;;;;15.90;9.90;;;;;;;19.40;37.54;103437.81;4969868;28;20415;-61
2022/01/25 05:47:33;;;;;;;13.35;9.40;;;;;;;19.40;37.69;103448.41;4970706;28;20046;-61
2022/01/25 05:49:59;;;;;;;15.82;10.10;;;;;;;19.44;37.58;103443.72;4967106;28;20038;-61
2022/01/25 05:52:25;;;;;;;19.00;10.38;;;;;;;19.72;37.23;103442.50;4971744;28;20068;-61
2022/01/25 05:54:51;;;;;;;16.17;9.40;;;;;;;20.14;36.68;103433.97;4970288;28;20133;-61
2022/01/25 05:57:17;;;;;;;15.55;10.07;;;;;;;20.44;36.17;103430.72;4969068;28;20148;-61
2022/01/25 05:59:43;;;;;;;14.15;9.23;;;;;;;20.44;36.13;103425.44;4954409;28;20041;-61
2022/01/25 06:02:08;;;;;;;15.35;9.98;;;;;;;20.51;36.25;103429.31;4965799;28;20158;-61
2022/01/25 06:04:34;;;;;;;14.55;9.35;;;;;;;20.74;35.80;103438.06;4972188;28;20038;-61
2022/01/25 06:07:00;;;;;;;14.82;9.07;;;;;;;20.78;35.73;103428.06;4968948;28;20043;-61
2022/01/25 06:09:25;;;;;;;13.85;9.27;;;;;;;20.91;35.73;103435.84;4965815;28;20136;-61
2022/01/25 06:11:52;;;;;;;13.98;9.38;;;;;;;21.01;35.41;103439.47;4968497;28;20045;-61
2022/01/25 06:14:18;;;;;;;13.63;8.90;;;;;;;21.16;35.30;103432.03;4964514;28;20046;-61
2022/01/25 06:16:44;;;;;;;16.35;10.13;;;;;;;21.43;34.88;103427.16;4968369;28;20050;-61
2022/01/25 06:19:09;;;;;;;13.38;8.95;;;;;;;21.81;34.60;103442.50;4969030;28;20054;-61
2022/01/25 06:21:35;;;;;;;14.77;8.68;;;;;;;22.26;33.73;103429.81;4971655;28;20052;-61
2022/01/25 06:24:00;;;;;;;13.20;8.93;;;;;;;22.54;33.22;103424.72;4951620;28;20120;-61
2022/01/25 06:26:26;;;;;;;13.65;9.02;;;;;;;22.77;32.98;103428.81;4967357;28;20033;-61
2022/01/25 06:28:52;;;;;;;16.33;9.32;;;;;;;22.88;33.14;103430.56;4970667;28;20073;-61
2022/01/25 06:31:18;;;;;;;15.02;8.75;;;;;;;22.68;33.26;103439.44;4950459;28;20081;-61
2022/01/25 06:33:45;;;;;;;14.27;9.43;;;;;;;22.47;33.53;103429.72;4967436;28;20056;-61
2022/01/25 06:36:11;;;;;;;12.73;8.65;;;;;;;22.29;34.08;103439.31;4972543;28;20031;-61
2022/01/25 06:38:36;;;;;;;14.13;9.60;;;;;;;22.14;34.22;103435.31;4970854;28;20285;-61
2022/01/25 06:41:02;;;;;;;12.90;8.40;;;;;;;21.90;34.62;103425.81;4966631;28;20045;-61
2022/01/25 06:43:28;;;;;;;12.25;8.52;;;;;;;21.83;34.61;103447.66;4966844;28;20038;-61
2022/01/25 06:46:01;;;;;;;15.23;9.07;;;;;;;21.62;35.00;103422.00;4968130;28;20081;-61
2022/01/25 06:48:27;;;;;;;14.52;8.18;;;;;;;21.55;35.26;103442.06;4971629;28;20046;-61
2022/01/25 06:50:53;;;;;;;14.80;9.10;;;;;;;21.35;35.79;103434.88;4968515;28;20261;-61
2022/01/25 06:53:18;;;;;;;15.02;9.43;;;;;;;21.27;35.54;103419.63;4965449;28;20046;-61
2022/01/25 06:55:44;;;;;;;14.98;9.40;;;;;;;21.72;34.88;103440.59;4967392;28;20054;-61
2022/01/25 06:58:10;;;;;;;13.57;8.55;;;;;;;22.20;34.18;103445.41;4969012;28;20049;-61
2022/01/25 07:00:36;;;;;;;14.40;8.90;;;;;;;22.56;33.87;103433.38;4969482;28;20042;-61
2022/01/25 07:03:01;;;;;;;13.82;8.77;;;;;;;22.81;33.41;103440.88;4966995;28;20535;-61
2022/01/25 07:05:27;;;;;;;13.52;8.40;;;;;;;22.65;33.37;103440.56;4964991;28;20076;-61
2022/01/25 07:07:53;;;;;;;12.02;8.13;;;;;;;22.46;33.85;103445.81;4963521;28;20096;-61
2022/01/25 07:10:19;;;;;;;14.95;9.02;;;;;;;22.34;33.86;103444.22;4969572;28;20137;-61
2022/01/25 07:12:45;;;;;;;12.80;8.45;;;;;;;22.13;34.31;103428.34;4972421;28;20042;-61
2022/01/25 07:15:12;;;;;;;14.18;8.65;;;;;;;22.03;34.48;103450.31;4953500;28;20066;-61
2022/01/25 07:17:39;;;;;;;12.80;8.45;;;;;;;22.01;34.87;103452.25;4968690;28;20042;-61
2022/01/25 07:20:06;;;;;;;12.50;8.73;;;;;;;21.85;34.57;103454.53;4972100;28;21120;-61
2022/01/25 07:22:33;;;;;;;12.27;8.57;;;;;;;21.70;34.93;103443.38;4972925;28;20048;-61
2022/01/25 07:24:59;;;;;;;13.50;8.65;;;;;;;21.50;35.43;103433.63;4956932;28;20666;-61
2022/01/25 07:27:24;;;;;;;12.80;8.65;;;;;;;21.43;35.59;103443.06;4952053;28;20661;-61
2022/01/25 07:29:50;;;;;;;13.23;8.13;;;;;;;21.37;35.74;103436.47;4971550;28;20042;-61
2022/01/25 07:32:16;;;;;;;13.23;8.65;;;;;;;21.31;35.87;103436.13;4972448;28;20038;-61
2022/01/25 07:34:41;;;;;;;16.05;8.68;;;;;;;21.23;35.73;103430.59;4965725;28;20035;-61
2022/01/25 07:37:07;;;;;;;12.52;8.43;;;;;;;21.24;35.75;103435.78;4967116;28;20043;-61
2022/01/25 07:39:32;;;;;;;10.50;7.20;;;;;;;21.18;36.03;103430.09;4965194;28;20030;-61
2022/01/25 07:41:59;;;;;;;11.43;8.25;;;;;;;21.13;35.98;103428.69;4971922;28;20048;-61
2022/01/25 07:44:36;;;;;;;14.15;8.48;;;;;;;21.09;36.21;103429.91;4951862;28;20448;-61
2022/01/25 07:47:02;;;;;;;12.98;8.73;;;;;;;21.07;36.16;103426.53;4970728;28;20041;-61
2022/01/25 07:49:29;;;;;;;14.40;9.00;;;;;;;21.00;36.03;103419.19;4971661;28;20519;-61
2022/01/25 07:51:54;;;;;;;13.57;8.85;;;;;;;21.02;36.14;103425.25;4954968;28;20267;-61
2022/01/25 07:54:20;;;;;;;13.50;8.75;;;;;;;21.00;36.00;103433.28;4974632;28;20388;-61
2022/01/25 07:56:46;;;;;;;16.05;9.02;;;;;;;21.06;35.74;103434.63;4977185;28;20042;-61
2022/01/25 07:59:13;;;;;;;13.77;8.70;;;;;;;21.30;35.48;103429.13;4958969;28;20046;-61
2022/01/25 08:01:38;;;;;;;12.32;8.20;;;;;;;21.49;35.29;103439.06;4971979;28;20412;-61
2022/01/25 08:04:04;;;;;;;15.27;8.13;;;;;;;21.39;35.14;103415.13;4978518;28;20057;-60
2022/01/25 08:06:30;;;;;;;18.20;9.90;;;;;;;21.34;35.51;103435.84;4975848;28;20073;-61
2022/01/25 08:08:56;;;;;;;17.15;9.10;;;;;;;21.28;35.64;103431.06;4971473;28;20046;-61
2022/01/25 08:11:21;;;;;;;13.75;8.55;;;;;;;21.27;35.65;103438.19;4971467;28;20050;-61
2022/01/25 08:13:49;;;;;;;17.08;9.95;;;;;;;21.22;35.75;103436.84;4968077;28;20034;-61
2022/01/25 08:16:16;;;;;;;14.80;8.85;;;;;;;21.17;35.66;103446.97;4972972;28;20590;-61
2022/01/25 08:18:43;;;;;;;14.35;8.70;;;;;;;21.12;35.94;103442.06;4974118;28;20097;-61
2022/01/25 08:21:09;;;;;;;12.95;8.02;;;;;;;21.05;36.03;103436.44;4974749;28;20061;-61
2022/01/25 08:23:35;;;;;;;15.25;9.30;;;;;;;21.04;35.87;103441.84;4979022;28;20034;-61
2022/01/25 08:26:01;;;;;;;14.38;8.95;;;;;;;21.02;36.14;103438.50;4979230;28;20042;-61
2022/01/25 08:28:27;;;;;;;14.30;8.65;;;;;;;20.87;36.18;103429.97;4960323;28;20183;-61
2022/01/25 08:30:52;;;;;;;16.60;9.52;;;;;;;20.93;36.16;103445.34;4982221;28;20034;-61
2022/01/25 08:33:18;;;;;;;16.73;10.00;;;;;;;20.93;36.00;103440.06;4978438;28;20047;-61
2022/01/25 08:35:43;;;;;;;18.48;10.02;;;;;;;21.05;35.93;103443.53;4979387;28;20562;-61
2022/01/25 08:38:09;;;;;;;15.60;9.68;;;;;;;21.01;35.98;103427.06;4975198;28;20400;-61
2022/01/25 08:40:35;;;;;;;15.90;9.18;;;;;;;20.99;35.99;103428.97;4979337;28;20412;-62
2022/01/25 08:43:01;;;;;;;17.05;9.63;;;;;;;21.00;36.19;103445.69;4981381;28;20042;-62
2022/01/25 08:45:28;;;;;;;14.23;9.25;;;;;;;21.01;35.91;103445.59;4976918;28;20098;-61
2022/01/25 08:47:53;;;;;;;15.82;9.00;;;;;;;20.98;36.01;103452.94;4976434;28;20030;-61
2022/01/25 08:50:19;;;;;;;15.25;8.70;;;;;;;20.90;36.13;103442.97;4976285;28;20093;-61
2022/01/25 08:52:44;;;;;;;14.65;8.70;;;;;;;20.94;36.07;103452.34;4965870;28;20053;-61
2022/01/25 08:55:10;;;;;;;16.05;9.43;;;;;;;20.92;36.05;103446.31;4975886;28;20031;-61
2022/01/25 08:57:36;;;;;;;18.50;9.13;;;;;;;20.89;36.12;103451.03;4977077;28;20665;-61
2022/01/25 09:00:07;;;;;;;15.98;9.02;;;;;;;20.81;36.01;103431.28;4980348;28;20057;-62
2022/01/25 09:02:33;;;;;;;16.85;9.30;;;;;;;20.96;36.08;103445.09;4977026;28;20578;-61
2022/01/25 09:04:58;;;;;;;14.23;8.85;;;;;;;21.18;35.62;103448.66;4977897;28;20121;-61
2022/01/25 09:07:24;;;;;;;16.08;9.13;;;;;;;21.63;34.97;103444.88;4979121;28;20042;-61
2022/01/25 09:09:50;;;;;;;16.63;9.50;;;;;;;21.93;34.40;103469.81;4971449;28;20057;-61
2022/01/25 09:12:15;;;;;;;13.95;8.98;;;;;;;22.07;34.04;103461.53;4978213;28;20108;-61
2022/01/25 09:14:41;;;;;;;15.98;9.05;;;;;;;21.99;34.56;103461.31;4980533;28;20069;-61
2022/01/25 09:17:09;;;;;;;13.40;8.68;;;;;;;21.95;34.63;103457.25;4975231;28;20038;-61
2022/01/25 09:19:36;;;;;;;16.27;8.70;;;;;;;21.88;34.64;103462.22;4979779;28;20039;-61
2022/01/25 09:22:02;;;;;;;23.77;11.13;;;;;;;21.74;34.03;103444.00;4976917;28;20224;-71
2022/01/25 09:24:28;;;;;;;22.65;11.50;;;;;;;21.64;34.26;103461.63;4976591;28;20768;-69
2022/01/25 09:26:53;;;;;;;22.05;10.95;;;;;;;21.95;34.60;103444.00;4941461;28;20042;-68
2022/01/25 09:29:19;;;;;;;24.25;10.90;;;;;;;22.21;34.51;103455.88;4957460;28;20047;-68
2022/01/25 09:31:44;;;;;;;19.77;11.35;;;;;;;22.22;34.53;103457.56;4958143;28;20050;-66
2022/01/25 09:34:12;;;;;;;23.00;11.00;;;;;;;22.20;34.99;103469.28;4979822;28;20053;-67
2022/01/25 09:36:37;;;;;;;19.42;10.68;;;;;;;22.04;35.25;103459.09;4973863;28;20083;-66
2022/01/25 09:39:03;;;;;;;28.73;14.23;;;;;;;21.75;34.94;103469.56;4975402;28;20026;-65
2022/01/25 09:41:29;;;;;;;25.98;12.98;;;;;;;21.83;34.61;103469.72;4934703;28;20042;-75
2022/01/25 09:43:55;;;;;;;24.80;13.05;;;;;;;21.84;34.30;103475.88;4948212;28;20869;-76
2022/01/25 09:46:21;;;;;;;19.88;10.88;;;;;;;21.85;34.98;103478.41;4956250;28;20133;-67
2022/01/25 09:48:48;;;;;;;23.67;12.88;;;;;;;21.63;35.52;103481.16;4952505;28;20042;-63
2022/01/25 09:51:17;;;;;;;24.42;12.40;;;;;;;21.57;35.46;103479.88;4975792;28;20058;-62
2022/01/25 09:53:42;;;;;;;25.48;13.10;;;;;;;21.47;35.57;103475.47;4951252;28;20066;-61
2022/01/25 09:56:08;;;;;;;25.95;12.35;;;;;;;21.46;35.42;103479.91;4974965;28;20563;-62
2022/01/25 09:58:34;;;;;;;22.75;12.40;;;;;;;21.42;35.23;103486.44;4951537;28;20057;-62
2022/01/25 10:01:01;;;;;;;22.10;11.75;;;;;;;21.40;35.26;103483.09;4952804;28;20049;-73
2022/01/25 10:03:39;;;;;;;23.08;11.45;;;;;;;21.39;35.55;103492.84;4977164;28;20034;-64
2022/01/25 10:06:12;;;;;;;21.77;11.07;;;;;;;21.29;35.54;103483.94;4932836;28;20038;-64
2022/01/25 10:08:38;;;;;;;21.77;10.32;;;;;;;21.31;35.74;103503.22;4975735;28;20073;-64
2022/01/25 10:11:07;;;;;;;18.85;10.90;;;;;;;21.27;35.65;103491.19;4948801;28;20527;-64
2022/01/25 10:13:42;;;;;;;24.50;12.02;;;;;;;21.25;35.56;103487.81;4976334;28;20534;-64
2022/01/25 10:16:17;;;;;;;17.95;10.60;;;;;;;21.30;35.56;103500.69;4939375;28;20038;-63
2022/01/25 10:18:52;;;;;;;16.88;9.50;;;;;;;21.54;35.33;103500.47;4973929;28;20486;-63
2022/01/25 10:21:19;;;;;;;16.17;9.63;;;;;;;21.80;34.76;103501.81;4929373;28;20053;-63
2022/01/25 10:24:06;;;;;;;16.80;9.98;;;;;;;22.00;34.54;103502.78;4974972;28;20084;-64
2022/01/25 10:26:35;;;;;;;16.23;9.63;;;;;;;21.78;34.72;103479.91;4949548;28;20179;-64
2022/01/25 10:29:01;;;;;;;19.60;10.30;;;;;;;21.89;34.78;103505.50;4975335;28;20112;-64
2022/01/25 10:31:38;;;;;;;18.77;9.85;;;;;;;21.87;34.45;103504.78;4945931;28;21151;-63
2022/01/25 10:34:07;;;;;;;16.20;9.77;;;;;;;21.87;34.58;103502.97;4968425;28;20034;-63
2022/01/25 10:36:33;;;;;;;19.85;10.43;;;;;;;21.80;34.68;103501.81;4971901;28;20041;-63
2022/01/25 10:38:58;;;;;;;17.80;10.02;;;;;;;21.83;34.77;103506.03;4950271;28;20400;-63
2022/01/25 10:41:28;;;;;;;16.13;9.45;;;;;;;21.75;34.70;103508.50;4957657;28;20057;-63
2022/01/25 10:43:55;;;;;;;17.25;9.23;;;;;;;21.72;34.95;103509.56;4952590;28;20049;-64
2022/01/25 10:46:29;;;;;;;15.30;9.45;;;;;;;21.61;35.02;103499.88;4972342;28;20153;-64
2022/01/25 10:49:05;;;;;;;19.20;10.13;;;;;;;21.62;34.97;103504.19;4939810;28;20475;-64
2022/01/25 10:51:38;;;;;;;20.38;10.63;;;;;;;21.65;35.06;103509.25;4976274;28;20456;-63
2022/01/25 10:54:10;;;;;;;17.65;9.10;;;;;;;21.66;34.67;103515.38;4959241;28;20038;-63
2022/01/25 10:56:57;;;;;;;17.30;9.68;;;;;;;21.49;34.97;103506.16;4973505;28;20493;-63
2022/01/25 10:59:26;;;;;;;18.33;9.65;;;;;;;21.39;35.25;103506.09;4950448;28;20588;-63
2022/01/25 11:01:55;;;;;;;17.50;9.50;;;;;;;21.18;35.34;103470.69;4975334;28;20551;-63
2022/01/25 11:04:41;;;;;;;17.42;10.38;;;;;;;21.47;35.24;103501.97;4935117;28;20804;-63
2022/01/25 11:07:09;;;;;;;15.38;10.07;;;;;;;21.41;34.92;103482.97;4963970;28;20726;-63
2022/01/25 11:09:41;;;;;;;19.88;9.95;;;;;;;21.38;35.41;103491.16;4974537;28;20053;-63
2022/01/25 11:12:11;;;;;;;15.73;9.43;;;;;;;21.39;35.29;103492.00;4951426;28;20038;-63
2022/01/25 11:14:57;;;;;;;16.35;8.77;;;;;;;21.26;35.25;103472.78;4973240;28;20091;-63
2022/01/25 11:17:25;;;;;;;17.83;10.02;;;;;;;21.36;35.08;103495.75;4940640;28;20039;-63
2022/01/25 11:19:52;;;;;;;16.20;9.10;;;;;;;21.38;35.17;103492.97;4972193;28;20078;-63
2022/01/25 11:22:21;;;;;;;26.73;12.20;;;;;;;21.48;34.46;103479.78;4960581;28;20037;-72
2022/01/25 11:24:50;;;;;;;27.10;13.32;;;;;;;21.39;34.32;103481.41;4969433;28;20380;-65
2022/01/25 11:27:17;;;;;;;24.17;13.00;;;;;;;21.33;34.27;103473.94;4975198;28;20097;-63
2022/01/25 11:29:45;;;;;;;26.35;12.65;;;;;;;21.29;35.24;103476.00;4951122;28;20263;-62
2022/01/25 11:32:23;;;;;;;22.55;12.18;;;;;;;21.29;35.15;103476.00;4957328;28;20042;-62
2022/01/25 11:34:50;;;;;;;25.42;12.00;;;;;;;21.22;35.26;103468.66;4953389;28;20107;-62
2022/01/25 11:37:16;;;;;;;20.20;11.40;;;;;;;21.19;35.39;103461.81;4970453;28;20029;-62
2022/01/25 11:39:47;;;;;;;20.83;11.73;;;;;;;21.29;35.23;103462.75;4940982;28;20046;-61
2022/01/25 11:42:18;;;;;;;19.60;10.90;;;;;;;21.44;34.83;103460.66;4974408;28;20558;-62
2022/01/25 11:44:58;;;;;;;18.15;10.50;;;;;;;21.74;34.30;103449.31;4952294;28;20660;-62
2022/01/25 11:47:36;;;;;;;18.60;10.18;;;;;;;22.17;33.94;103454.47;4974695;28;20042;-62
2022/01/25 11:50:06;;;;;;;17.67;9.43;;;;;;;22.35;33.39;103453.84;4952833;28;20101;-63
2022/01/25 11:52:34;;;;;;;15.73;9.32;;;;;;;22.46;33.10;103454.59;4973281;28;20038;-62
2022/01/25 11:55:19;;;;;;;16.83;9.75;;;;;;;22.37;33.24;103449.25;4940383;28;20120;-62
2022/01/25 11:58:05;;;;;;;16.58;9.43;;;;;;;22.23;33.53;103451.28;4975236;28;20065;-62
2022/01/25 12:00:45;;;;;;;19.30;10.10;;;;;;;22.21;33.65;103447.91;4952039;28;20046;-62
2022/01/25 12:03:44;;;;;;;20.95;10.27;;;;;;;22.20;34.06;103440.94;4976230;28;20136;-62
2022/01/25 12:06:30;;;;;;;16.45;9.52;;;;;;;22.12;33.67;103447.88;4955447;28;20053;-61
2022/01/25 12:09:08;;;;;;;18.08;9.57;;;;;;;22.09;34.18;103441.03;4974267;28;20042;-62
2022/01/25 12:11:58;;;;;;;19.23;10.07;;;;;;;22.01;34.07;103446.94;4944126;28;20054;-62
2022/01/25 12:14:26;;;;;;;21.45;10.50;;;;;;;21.91;34.26;103447.88;4977581;28;20670;-62
2022/01/25 12:17:04;;;;;;;20.90;10.80;;;;;;;21.86;34.46;103450.91;4958550;28;20045;-62
2022/01/25 12:19:47;;;;;;;16.33;10.00;;;;;;;21.74;34.46;103445.81;4977494;28;20076;-62
2022/01/25 12:22:48;;;;;;;20.38;10.35;;;;;;;21.73;34.51;103442.31;4955615;28;20050;-62
2022/01/25 12:25:33;;;;;;;17.08;9.45;;;;;;;21.56;34.65;103427.00;4973429;28;20074;-62
2022/01/25 12:28:30;;;;;;;20.63;10.73;;;;;;;21.65;34.71;103442.09;4945894;28;20081;-62
2022/01/25 12:31:00;;;;;;;16.30;9.82;;;;;;;21.57;34.97;103432.16;4979531;28;20062;-62
2022/01/25 12:33:32;;;;;;;17.48;9.38;;;;;;;21.60;34.73;103429.25;4957358;28;20129;-62
2022/01/25 12:36:00;;;;;;;17.17;8.75;;;;;;;21.64;34.61;103428.00;4976567;28;20060;-62
2022/01/25 12:38:27;;;;;;;16.63;9.27;;;;;;;21.66;34.60;103430.53;4954937;28;20524;-62
2022/01/25 12:41:07;;;;;;;18.73;9.35;;;;;;;21.64;34.56;103419.22;4979088;28;20038;-62
2022/01/25 12:43:54;;;;;;;17.27;9.13;;;;;;;21.55;34.75;103425.31;4947423;28;20030;-62
2022/01/25 12:46:37;;;;;;;16.40;9.43;;;;;;;21.48;34.94;103424.94;4979232;28;20105;-62
2022/01/25 12:49:10;;;;;;;17.60;9.70;;;;;;;21.48;35.01;103427.59;4951653;28;20428;-62
2022/01/25 12:51:38;;;;;;;16.85;9.57;;;;;;;21.50;34.97;103416.88;4979534;28;20050;-62
2022/01/25 12:54:07;;;;;;;15.55;9.48;;;;;;;21.46;34.87;103411.00;4955793;28;20549;-62
2022/01/25 12:56:38;;;;;;;17.63;9.27;;;;;;;21.46;34.92;103408.34;4979872;28;20120;-62
2022/01/25 12:59:07;;;;;;;15.88;9.07;;;;;;;21.37;34.85;103409.13;4931327;28;20034;-62